createdAt,value
2022-10-23T00:01:37.432Z,17.57
2022-10-23T00:04:09.230Z,17.27
2022-10-23T00:06:36.945Z,16.50
2022-10-23T00:09:06.722Z,17.07
2022-10-23T00:11:34.801Z,16.50
2022-10-23T00:14:03.439Z,15.17
2022-10-23T00:16:30.606Z,15.97
2022-10-23T00:18:57.674Z,16.63
2022-10-23T00:21:24.919Z,16.13
2022-10-23T00:23:52.587Z,16.97
2022-10-23T00:26:20.209Z,17.20
2022-10-23T00:28:50.692Z,17.50
2022-10-23T00:31:18.704Z,17.30
2022-10-23T00:33:46.548Z,16.87
2022-10-23T00:36:16.043Z,16.97
2022-10-23T00:38:45.070Z,16.37
2022-10-23T00:41:24.437Z,16.70
2022-10-23T00:44:22.611Z,16.83
2022-10-23T00:46:49.872Z,16.03
2022-10-23T00:49:17.273Z,16.93
2022-10-23T00:51:48.797Z,17.03
2022-10-23T00:54:23.946Z,18.03
2022-10-23T00:56:57.191Z,17.53
2022-10-23T00:59:25.090Z,18.33
2022-10-23T01:01:52.396Z,19.73
2022-10-23T01:04:19.619Z,19.03
2022-10-23T01:07:09.894Z,19.23
2022-10-23T01:10:01.390Z,19.13
2022-10-23T01:13:03.808Z,19.23
2022-10-23T01:16:08.570Z,18.97
2022-10-23T01:18:35.492Z,18.63
2022-10-23T01:21:32.092Z,21.47
2022-10-23T01:24:19.663Z,20.67
2022-10-23T01:27:14.179Z,21.23
2022-10-23T01:29:54.472Z,21.47
2022-10-23T01:32:38.350Z,20.00
2022-10-23T01:35:19.022Z,20.67
2022-10-23T01:38:01.172Z,21.30
2022-10-23T01:40:37.546Z,21.20
2022-10-23T01:43:16.646Z,21.80
2022-10-23T01:45:50.862Z,22.33
2022-10-23T01:48:26.151Z,21.37
2022-10-23T01:50:58.026Z,21.40
2022-10-23T01:53:30.771Z,21.50
2022-10-23T01:56:00.853Z,20.83
2022-10-23T01:58:29.791Z,22.13
2022-10-23T02:01:01.177Z,20.90
2022-10-23T02:03:31.629Z,23.60
2022-10-23T02:05:58.714Z,22.87
2022-10-23T02:08:26.125Z,23.13
2022-10-23T02:11:15.059Z,22.93
2022-10-23T02:14:03.867Z,23.23
2022-10-23T02:16:54.471Z,21.60
2022-10-23T02:19:27.442Z,22.70
2022-10-23T02:22:16.213Z,24.00
2022-10-23T02:24:54.267Z,25.10
2022-10-23T02:27:38.922Z,23.63
2022-10-23T02:30:13.756Z,24.90
2022-10-23T02:32:47.931Z,23.87
2022-10-23T02:35:21.264Z,23.67
2022-10-23T02:37:56.684Z,23.73
2022-10-23T02:40:35.880Z,25.90
2022-10-23T02:43:12.699Z,24.53
2022-10-23T02:45:47.449Z,25.27
2022-10-23T02:48:23.302Z,23.73
2022-10-23T02:51:22.426Z,24.10
2022-10-23T02:54:25.801Z,24.90
2022-10-23T02:56:55.310Z,26.17
2022-10-23T02:59:44.367Z,26.63
2022-10-23T03:02:11.492Z,27.73
2022-10-23T03:04:42.344Z,26.37
2022-10-23T03:07:14.162Z,28.10
2022-10-23T03:09:42.905Z,26.93
2022-10-23T03:12:09.926Z,27.40
2022-10-23T03:14:37.444Z,25.33
2022-10-23T03:17:05.057Z,26.43
2022-10-23T03:19:32.028Z,26.67
2022-10-23T03:21:59.317Z,28.60
2022-10-23T03:24:26.362Z,27.30
2022-10-23T03:26:53.351Z,28.57
2022-10-23T03:29:29.307Z,27.60
2022-10-23T03:31:56.285Z,28.73
2022-10-23T03:34:23.376Z,27.17
2022-10-23T03:36:53.074Z,28.27
2022-10-23T03:39:21.114Z,29.13
2022-10-23T03:41:48.349Z,29.23
2022-10-23T03:44:16.979Z,30.27
2022-10-23T03:46:45.471Z,29.90
2022-10-23T03:49:12.520Z,27.63
2022-10-23T03:51:44.146Z,28.10
2022-10-23T03:54:11.723Z,27.70
2022-10-23T03:56:38.750Z,29.73
2022-10-23T03:59:07.937Z,27.80
2022-10-23T04:01:35.176Z,27.73
2022-10-23T04:04:02.387Z,27.03
2022-10-23T04:06:29.690Z,26.33
2022-10-23T04:08:58.437Z,28.13
2022-10-23T04:11:25.559Z,26.90
2022-10-23T04:13:52.852Z,28.97
2022-10-23T04:16:19.902Z,27.87
2022-10-23T04:18:46.957Z,27.07
2022-10-23T04:21:13.972Z,26.80
2022-10-23T04:23:41.029Z,27.23
2022-10-23T04:26:17.235Z,26.23
2022-10-23T04:28:44.219Z,27.47
2022-10-23T04:31:11.228Z,27.47
2022-10-23T04:33:41.152Z,26.53
2022-10-23T04:36:08.677Z,27.53
2022-10-23T04:38:35.796Z,26.77
2022-10-23T04:41:04.109Z,28.07
2022-10-23T04:43:31.117Z,27.90
2022-10-23T04:45:58.107Z,27.80
2022-10-23T04:48:28.343Z,27.97
2022-10-23T04:51:14.930Z,27.97
2022-10-23T04:54:10.999Z,27.27
2022-10-23T04:57:10.477Z,28.67
2022-10-23T05:00:14.632Z,29.00
2022-10-23T05:02:48.422Z,28.90
2022-10-23T05:05:17.665Z,29.27
2022-10-23T05:08:02.599Z,30.53
2022-10-23T05:10:41.634Z,29.23
2022-10-23T05:13:14.029Z,27.80
2022-10-23T05:15:41.166Z,29.60
2022-10-23T05:18:17.229Z,30.83
2022-10-23T05:20:47.629Z,31.50
2022-10-23T05:23:18.193Z,30.47
2022-10-23T05:25:54.226Z,31.67
2022-10-23T05:28:22.362Z,32.63
2022-10-23T05:30:50.042Z,30.47
2022-10-23T05:33:17.951Z,31.53
2022-10-23T05:35:45.465Z,32.70
2022-10-23T05:38:15.826Z,32.50
2022-10-23T05:40:43.889Z,33.47
2022-10-23T05:43:16.056Z,33.23
2022-10-23T05:45:49.549Z,32.37
2022-10-23T05:48:35.169Z,32.00
2022-10-23T05:51:10.913Z,33.73
2022-10-23T05:53:45.863Z,32.40
2022-10-23T05:56:22.199Z,30.97
2022-10-23T05:59:08.098Z,29.37
2022-10-23T06:01:49.216Z,28.27
2022-10-23T06:04:22.848Z,30.00
2022-10-23T06:07:12.569Z,28.87
2022-10-23T06:09:40.218Z,29.50
2022-10-23T06:12:07.451Z,32.23
2022-10-23T06:14:34.730Z,36.13
2022-10-23T06:17:01.713Z,48.63
2022-10-23T06:19:28.682Z,50.60
2022-10-23T06:21:57.629Z,43.93
2022-10-23T06:24:36.755Z,39.43
2022-10-23T06:27:09.609Z,33.77
2022-10-23T06:29:42.392Z,33.37
2022-10-23T06:32:09.664Z,32.37
2022-10-23T06:34:37.698Z,29.70
2022-10-23T06:37:07.159Z,30.60
2022-10-23T06:39:44.644Z,28.70
2022-10-23T06:42:37.802Z,26.17
2022-10-23T06:45:25.197Z,26.93
2022-10-23T06:48:12.319Z,25.57
2022-10-23T06:50:57.759Z,26.27
2022-10-23T06:53:35.953Z,24.20
2022-10-23T06:56:11.710Z,25.33
2022-10-23T06:58:40.145Z,23.03
2022-10-23T07:01:13.839Z,22.83
2022-10-23T07:03:43.079Z,20.63
2022-10-23T07:06:11.703Z,19.73
2022-10-23T07:08:39.113Z,17.23
2022-10-23T07:11:23.831Z,15.50
2022-10-23T07:13:51.296Z,16.43
2022-10-23T07:16:23.207Z,15.90
2022-10-23T07:19:01.799Z,16.37
2022-10-23T07:21:31.153Z,15.27
2022-10-23T07:24:28.087Z,15.00
2022-10-23T07:26:56.878Z,15.33
2022-10-23T07:29:24.915Z,13.20
2022-10-23T07:31:52.288Z,14.57
2022-10-23T07:34:45.385Z,14.53
2022-10-23T07:37:24.446Z,13.43
2022-10-23T07:39:51.452Z,13.50
2022-10-23T07:42:18.469Z,15.13
2022-10-23T07:44:46.082Z,13.30
2022-10-23T07:47:13.264Z,11.50
2022-10-23T07:49:43.775Z,12.50
2022-10-23T07:52:11.493Z,13.17
2022-10-23T07:54:58.386Z,13.40
2022-10-23T07:57:28.621Z,12.63
2022-10-23T08:00:06.286Z,11.70
2022-10-23T08:02:40.927Z,11.23
2022-10-23T08:05:10.139Z,12.30
2022-10-23T08:07:49.140Z,11.70
2022-10-23T08:10:17.146Z,10.20
2022-10-23T08:12:45.356Z,9.93
2022-10-23T08:15:13.495Z,11.17
2022-10-23T08:17:58.545Z,11.20
2022-10-23T08:20:47.432Z,11.93
2022-10-23T08:23:17.907Z,11.17
2022-10-23T08:25:46.150Z,11.90
2022-10-23T08:28:16.561Z,11.30
2022-10-23T08:30:52.867Z,11.37
2022-10-23T08:33:19.913Z,11.53
2022-10-23T08:35:47.000Z,12.47
2022-10-23T08:38:19.875Z,12.03
2022-10-23T08:40:48.901Z,11.83
2022-10-23T08:44:03.401Z,12.30
2022-10-23T08:46:40.808Z,10.30
2022-10-23T08:49:55.362Z,10.20
2022-10-23T08:52:29.988Z,11.00
2022-10-23T08:55:19.015Z,10.70
2022-10-23T08:57:59.180Z,11.00
2022-10-23T09:00:26.552Z,12.07
2022-10-23T09:02:54.603Z,10.43
2022-10-23T09:05:50.031Z,10.30
2022-10-23T09:08:36.142Z,9.57
2022-10-23T09:11:09.254Z,10.00
2022-10-23T09:13:58.317Z,10.47
2022-10-23T09:17:02.765Z,10.03
2022-10-23T09:19:31.377Z,9.87
2022-10-23T09:21:59.145Z,10.23
2022-10-23T09:24:31.496Z,10.70
2022-10-23T09:26:59.099Z,10.30
2022-10-23T09:29:32.969Z,11.50
2022-10-23T09:32:02.986Z,10.50
2022-10-23T09:34:32.396Z,11.10
2022-10-23T09:37:21.374Z,11.20
2022-10-23T09:39:48.969Z,10.83
2022-10-23T09:42:23.527Z,10.00
2022-10-23T09:44:53.496Z,9.57
2022-10-23T09:47:24.380Z,9.97
2022-10-23T09:49:56.967Z,9.50
2022-10-23T09:52:32.255Z,11.07
2022-10-23T09:55:01.762Z,9.67
2022-10-23T09:57:34.047Z,9.93
2022-10-23T10:00:15.639Z,8.87
2022-10-23T10:02:44.714Z,9.50
2022-10-23T10:05:45.165Z,9.10
2022-10-23T10:08:29.943Z,8.67
2022-10-23T10:11:20.096Z,9.37
2022-10-23T10:13:56.624Z,10.00
2022-10-23T10:19:14.545Z,8.83
2022-10-23T10:22:09.163Z,8.57
2022-10-23T10:24:51.714Z,8.37
2022-10-23T10:27:35.479Z,8.70
2022-10-23T10:30:13.055Z,9.47
2022-10-23T10:32:55.096Z,9.70
2022-10-23T10:35:46.815Z,8.97
2022-10-23T10:38:27.517Z,9.37
2022-10-23T10:41:14.625Z,7.90
2022-10-23T10:44:03.019Z,8.37
2022-10-23T10:46:53.339Z,8.23
2022-10-23T10:49:41.814Z,8.67
2022-10-23T10:52:31.898Z,8.20
2022-10-23T10:55:29.714Z,8.00
2022-10-23T10:58:03.329Z,7.87
2022-10-23T11:00:33.283Z,7.63
2022-10-23T11:03:29.507Z,7.93
2022-10-23T11:08:44.607Z,8.27
2022-10-23T11:11:36.758Z,7.33
2022-10-23T11:14:03.936Z,8.37
2022-10-23T11:16:36.041Z,7.40
2022-10-23T11:19:24.609Z,6.97
2022-10-23T11:22:17.349Z,7.63
2022-10-23T11:25:22.870Z,7.00
2022-10-23T11:28:10.370Z,6.63
2022-10-23T11:31:14.047Z,6.63
2022-10-23T11:33:56.327Z,6.10
2022-10-23T11:36:57.356Z,6.47
2022-10-23T11:39:27.899Z,6.57
2022-10-23T11:42:31.703Z,6.83
2022-10-23T11:44:58.714Z,6.63
2022-10-23T11:47:40.811Z,6.50
2022-10-23T11:50:07.758Z,6.47
2022-10-23T11:52:50.375Z,6.50
2022-10-23T11:55:20.061Z,6.60
2022-10-23T11:58:08.649Z,5.90
2022-10-23T12:00:40.412Z,5.93
2022-10-23T12:03:20.816Z,6.47
2022-10-23T12:08:31.281Z,6.50
2022-10-23T12:10:58.367Z,6.13
2022-10-23T12:13:37.717Z,6.30
2022-10-23T12:16:07.559Z,6.03
2022-10-23T12:18:46.633Z,6.73
2022-10-23T12:21:20.421Z,6.40
2022-10-23T12:23:59.745Z,5.80
2022-10-23T12:26:45.851Z,6.30
2022-10-23T12:29:42.909Z,6.23
2022-10-23T12:32:34.061Z,5.80
2022-10-23T12:35:38.523Z,6.90
2022-10-23T12:38:21.577Z,7.13
2022-10-23T12:41:18.099Z,6.30
2022-10-23T12:43:55.934Z,6.17
2022-10-23T12:46:40.852Z,5.90
2022-10-23T12:49:15.958Z,6.53
2022-10-23T12:51:43.358Z,5.60
2022-10-23T12:54:19.772Z,5.90
2022-10-23T12:56:47.694Z,5.77
2022-10-23T12:59:38.525Z,6.47
2022-10-23T13:02:23.500Z,6.27
2022-10-23T13:04:53.986Z,5.83
2022-10-23T13:07:25.592Z,5.70
2022-10-23T13:09:55.524Z,6.20
2022-10-23T13:12:30.967Z,6.57
2022-10-23T13:15:03.494Z,5.73
2022-10-23T13:17:53.125Z,6.33
2022-10-23T13:20:29.266Z,6.80
2022-10-23T13:23:01.926Z,6.47
2022-10-23T13:25:32.177Z,6.20
2022-10-23T13:28:17.705Z,6.57
2022-10-23T13:30:48.218Z,5.50
2022-10-23T13:33:21.231Z,6.90
2022-10-23T13:36:23.806Z,5.70
2022-10-23T13:39:13.287Z,5.97
2022-10-23T13:41:43.915Z,6.57
2022-10-23T13:44:13.406Z,6.43
2022-10-23T13:46:40.432Z,6.40
2022-10-23T13:49:07.417Z,6.47
2022-10-23T13:51:42.839Z,7.70
2022-10-23T13:54:16.616Z,7.17
2022-10-23T13:56:44.022Z,6.30
2022-10-23T13:59:12.466Z,6.43
2022-10-23T14:01:40.068Z,6.97
2022-10-23T14:04:07.895Z,6.03
2022-10-23T14:06:37.503Z,6.57
2022-10-23T14:09:14.959Z,6.53
2022-10-23T14:11:42.049Z,6.13
2022-10-23T14:14:09.113Z,6.23
2022-10-23T14:16:36.287Z,6.40
2022-10-23T14:19:03.590Z,6.10
2022-10-23T14:21:30.575Z,6.47
2022-10-23T14:23:57.884Z,6.37
2022-10-23T14:26:27.830Z,7.27
2022-10-23T14:28:57.550Z,6.10
2022-10-23T14:31:26.898Z,6.47
2022-10-23T14:33:56.226Z,5.87
2022-10-23T14:36:23.738Z,6.67
2022-10-23T14:38:55.903Z,6.83
2022-10-23T14:41:23.400Z,5.93
2022-10-23T14:43:50.555Z,7.43
2022-10-23T14:46:20.333Z,6.27
2022-10-23T14:48:50.945Z,7.10
2022-10-23T14:51:26.337Z,6.07
2022-10-23T14:53:59.812Z,6.27
2022-10-23T14:56:27.024Z,6.33
2022-10-23T14:58:54.399Z,6.27
2022-10-23T15:01:21.524Z,6.17
2022-10-23T15:03:54.702Z,7.40
2022-10-23T15:06:21.859Z,6.10
2022-10-23T15:08:57.610Z,6.63
2022-10-23T15:11:25.697Z,6.57
2022-10-23T15:13:54.748Z,6.13
2022-10-23T15:16:23.106Z,7.00
2022-10-23T15:18:50.708Z,7.80
2022-10-23T15:21:17.853Z,7.07
2022-10-23T15:23:46.113Z,7.07
2022-10-23T15:26:20.711Z,6.63
2022-10-23T15:28:52.238Z,7.73
2022-10-23T15:31:55.232Z,6.30
2022-10-23T15:34:24.374Z,6.40
2022-10-23T15:36:52.680Z,6.87
2022-10-23T15:39:22.388Z,7.03
2022-10-23T15:41:53.214Z,7.07
2022-10-23T15:44:22.677Z,5.60
2022-10-23T15:46:50.015Z,6.20
2022-10-23T15:49:18.046Z,6.00
2022-10-23T15:51:45.415Z,6.13
2022-10-23T15:54:18.890Z,6.27
2022-10-23T15:56:51.590Z,6.97
2022-10-23T15:59:20.532Z,6.63
2022-10-23T16:01:48.399Z,6.23
2022-10-23T16:04:16.275Z,5.73
2022-10-23T16:06:44.335Z,6.40
2022-10-23T16:09:11.365Z,6.80
2022-10-23T16:11:41.428Z,6.83
2022-10-23T16:14:12.904Z,6.40
2022-10-23T16:16:40.142Z,6.10
2022-10-23T16:19:07.213Z,6.20
2022-10-23T16:21:36.102Z,6.07
2022-10-23T16:24:05.967Z,5.63
2022-10-23T16:26:33.659Z,6.37
2022-10-23T16:29:03.398Z,7.13
2022-10-23T16:31:30.460Z,5.97
2022-10-23T16:34:01.685Z,6.20
2022-10-23T16:36:29.442Z,6.37
2022-10-23T16:39:20.307Z,7.03
2022-10-23T16:42:06.112Z,6.20
2022-10-23T16:44:50.167Z,6.60
2022-10-23T16:47:17.992Z,6.87
2022-10-23T16:49:45.699Z,7.07
2022-10-23T16:52:12.715Z,6.50
2022-10-23T16:54:40.175Z,6.73
2022-10-23T16:57:07.293Z,7.00
2022-10-23T16:59:34.526Z,6.83
2022-10-23T17:02:01.648Z,7.23
2022-10-23T17:04:28.753Z,6.40
2022-10-23T17:06:55.794Z,6.37
2022-10-23T17:09:23.657Z,7.47
2022-10-23T17:11:53.107Z,7.23
2022-10-23T17:14:21.247Z,6.23
2022-10-23T17:16:51.073Z,6.50
2022-10-23T17:22:10.852Z,8.03
2022-10-23T17:24:40.152Z,7.93
2022-10-23T17:27:07.285Z,9.17
2022-10-23T17:29:34.584Z,9.70
2022-10-23T17:32:01.592Z,9.97
2022-10-23T17:34:28.629Z,9.97
2022-10-23T17:36:56.186Z,11.00
2022-10-23T17:39:26.217Z,10.37
2022-10-23T17:41:54.151Z,9.53
2022-10-23T17:44:21.769Z,9.97
2022-10-23T17:46:53.639Z,10.33
2022-10-23T17:49:21.822Z,9.77
2022-10-23T17:51:55.415Z,10.70
2022-10-23T17:54:22.949Z,9.20
2022-10-23T17:56:50.060Z,9.37
2022-10-23T17:59:21.387Z,9.47
2022-10-23T18:01:49.509Z,8.93
2022-10-23T18:04:18.745Z,10.87
2022-10-23T18:06:48.435Z,10.40
2022-10-23T18:09:15.532Z,10.67
2022-10-23T18:11:48.240Z,11.03
2022-10-23T18:14:17.119Z,11.20
2022-10-23T18:16:45.712Z,10.47
2022-10-23T18:19:13.845Z,10.23
2022-10-23T18:21:41.032Z,12.30
2022-10-23T18:24:08.069Z,12.03
2022-10-23T18:26:35.447Z,12.57
2022-10-23T18:29:07.357Z,13.67
2022-10-23T18:31:37.131Z,14.33
2022-10-23T18:34:07.715Z,13.67
2022-10-23T18:36:40.626Z,13.13
2022-10-23T18:39:12.452Z,14.73
2022-10-23T18:41:41.773Z,14.27
2022-10-23T18:44:09.819Z,13.90
2022-10-23T18:46:37.404Z,14.03
2022-10-23T18:49:05.039Z,13.27
2022-10-23T18:51:33.901Z,12.50
2022-10-23T18:54:03.361Z,14.90
2022-10-23T18:56:30.702Z,14.67
2022-10-23T18:59:00.176Z,15.40
2022-10-23T19:01:28.232Z,15.77
2022-10-23T19:06:30.225Z,14.30
2022-10-23T19:08:57.697Z,13.90
2022-10-23T19:11:27.339Z,15.47
2022-10-23T19:13:54.863Z,14.13
2022-10-23T19:16:24.157Z,14.37
2022-10-23T19:19:10.693Z,14.23
2022-10-23T19:21:39.793Z,14.03
2022-10-23T19:24:10.830Z,14.03
2022-10-23T19:26:39.915Z,14.10
2022-10-23T19:29:09.174Z,14.67
2022-10-23T19:31:36.294Z,13.77
2022-10-23T19:34:03.497Z,13.53
2022-10-23T19:36:31.738Z,13.27
2022-10-23T19:38:58.839Z,13.93
2022-10-23T19:41:25.852Z,14.17
2022-10-23T19:43:52.891Z,14.60
2022-10-23T19:46:19.980Z,14.10
2022-10-23T19:48:46.973Z,12.60
2022-10-23T19:51:14.194Z,12.50
2022-10-23T19:53:42.693Z,12.73
2022-10-23T19:56:11.773Z,12.40
2022-10-23T19:58:39.140Z,12.43
2022-10-23T20:01:21.421Z,13.30
2022-10-23T20:03:48.891Z,13.00
2022-10-23T20:06:42.241Z,13.63
2022-10-23T20:09:09.974Z,13.47
2022-10-23T20:11:39.462Z,13.77
2022-10-23T20:14:07.367Z,14.30
2022-10-23T20:16:37.114Z,15.07
2022-10-23T20:19:10.338Z,15.53
2022-10-23T20:21:39.123Z,15.30
2022-10-23T20:24:06.893Z,14.13
2022-10-23T20:26:34.437Z,13.27
2022-10-23T20:29:01.571Z,14.13
2022-10-23T20:31:28.632Z,14.13
2022-10-23T20:33:56.778Z,13.57
2022-10-23T20:36:32.624Z,13.17
2022-10-23T20:39:03.406Z,13.33
2022-10-23T20:41:33.143Z,12.47
2022-10-23T20:44:00.767Z,14.50
2022-10-23T20:46:27.996Z,14.07
2022-10-23T20:48:55.026Z,14.80
2022-10-23T20:51:24.039Z,15.37
2022-10-23T20:53:52.159Z,12.47
2022-10-23T20:56:20.644Z,13.63
2022-10-23T20:58:47.775Z,15.40
2022-10-23T21:01:17.643Z,13.87
2022-10-23T21:03:50.053Z,13.70
2022-10-23T21:06:19.229Z,13.27
2022-10-23T21:08:46.292Z,13.43
2022-10-23T21:11:15.977Z,12.70
2022-10-23T21:13:44.197Z,11.00
2022-10-23T21:16:20.881Z,11.57
2022-10-23T21:18:50.719Z,13.10
2022-10-23T21:21:20.177Z,12.63
2022-10-23T21:23:49.307Z,14.20
2022-10-23T21:26:18.185Z,15.20
2022-10-23T21:28:55.776Z,15.13
2022-10-23T21:31:33.609Z,14.53
2022-10-23T21:34:00.660Z,14.80
2022-10-23T21:36:29.869Z,14.70
2022-10-23T21:39:01.504Z,14.60
2022-10-23T21:41:34.460Z,15.43
2022-10-23T21:44:04.688Z,15.63
2022-10-23T21:46:33.780Z,17.23
2022-10-23T21:49:01.259Z,15.43
2022-10-23T21:51:37.182Z,14.87
2022-10-23T21:54:06.270Z,15.60
2022-10-23T21:56:38.262Z,14.30
2022-10-23T21:59:13.443Z,15.73
2022-10-23T22:01:43.171Z,15.70
2022-10-23T22:04:14.985Z,15.67
2022-10-23T22:06:43.521Z,17.73
2022-10-23T22:09:13.713Z,16.73
2022-10-23T22:11:41.200Z,17.87
2022-10-23T22:14:08.274Z,17.47
2022-10-23T22:16:35.247Z,18.30
2022-10-23T22:19:02.572Z,17.87
2022-10-23T22:21:30.835Z,17.10
2022-10-23T22:24:00.126Z,17.93
2022-10-23T22:26:31.477Z,18.13
2022-10-23T22:29:04.804Z,18.83
2022-10-23T22:31:33.340Z,18.33
2022-10-23T22:34:13.023Z,17.40
2022-10-23T22:36:48.748Z,19.00
2022-10-23T22:39:15.970Z,17.50
2022-10-23T22:41:43.680Z,18.60
2022-10-23T22:44:11.765Z,17.47
2022-10-23T22:46:39.142Z,18.30
2022-10-23T22:51:39.725Z,19.03
2022-10-23T22:54:07.141Z,20.20
2022-10-23T22:56:34.561Z,23.50
2022-10-23T22:59:01.938Z,24.63
2022-10-23T23:01:36.822Z,23.60
2022-10-23T23:04:26.093Z,24.13
2022-10-23T23:06:51.200Z,24.23
2022-10-23T23:09:18.827Z,24.90
2022-10-23T23:11:51.746Z,25.90
2022-10-23T23:14:23.446Z,29.10
2022-10-23T23:16:53.124Z,28.10
2022-10-23T23:19:22.483Z,26.60
2022-10-23T23:21:50.405Z,27.53
2022-10-23T23:24:17.629Z,27.03
2022-10-23T23:26:44.557Z,26.53
2022-10-23T23:29:11.900Z,26.13
2022-10-23T23:31:39.445Z,24.70
2022-10-23T23:34:06.420Z,30.03
2022-10-23T23:36:34.051Z,27.00
2022-10-23T23:39:01.712Z,28.10
2022-10-23T23:41:29.661Z,28.47
2022-10-23T23:43:58.455Z,28.57
2022-10-23T23:46:26.874Z,26.63
2022-10-23T23:48:53.946Z,25.90
2022-10-23T23:51:23.664Z,26.53
2022-10-23T23:53:51.261Z,26.17
2022-10-23T23:56:18.970Z,25.00
2022-10-23T23:58:45.943Z,25.73
